Terminal Aerodrome Forecast
Issued by NWS

Home | Current Version | Previous Version | Text Only | Print | Product List | Glossary On
Versions: 1 2 3 4 5 6 7 8 9 10 11 12 13 14 15 16 17 18 19 20 21 22
000
FTUS46 KMTR 251100
TAFOAK
TAF
KOAK 251134Z 2512/2618 27015G20KT P6SM -SHRA BKN012 OVC015
     FM251500 27010G15KT P6SM BKN012 OVC025
     FM251800 26012KT P6SM SCT015 BKN025
     FM252000 27015G20KT P6SM SCT035 BKN050
     FM260200 28015G22KT P6SM SCT025 SCT100
     FM260900 26010KT P6SM BKN015=

USA.gov is the U.S. government's official web portal to all federal, state and local government web resources and services.